This is the latest recevied weather packets stored in our database for station/object OH2TI. If no packets are shown the sender has not sent any weather packets the latest 1 day(s).
| Time | Temp. | Humidity | Pressure | Rain* | Wind** | Luminosity | Snow |
|---|---|---|---|---|---|---|---|
| 1777975734 | 12.22° C | 46% | 999.2 hPa | - | 3.13 m/s, 316° | - | - |
| 1777975014 | 11.67° C | 46% | 999 hPa | - | 4.02 m/s, 304° | - | - |
| 1777974349 | 11.11° C | 51% | 998.9 hPa | - | 4.47 m/s, 301° | - | - |
| 1777973964 | 11.11° C | 52% | 998.8 hPa | - | 2.68 m/s, 304° | - | - |
| 1777973289 | 12.22° C | 51% | 998.7 hPa | - | 1.34 m/s, 263° | - | - |
| 1777972554 | 11.11° C | 56% | 998.5 hPa | - | 2.24 m/s, 312° | - | - |
| 1777972139 | 10.56° C | 65% | 998.6 hPa | - | 0.89 m/s, 240° | - | - |
| 1777971829 | 11.11° C | 62% | 998.2 hPa | - | 2.68 m/s, 201° | - | - |
| 1777971456 | 11.67° C | 60% | 998 hPa | - | 4.47 m/s, 189° | - | - |
| 1777970991 | 11.11° C | 60% | 997.9 hPa | - | 4.47 m/s, 184° | - | - |
| 1777970556 | 11.67° C | 60% | 998 hPa | - | 3.13 m/s, 185° | - | - |
| 1777969971 | 11.67° C | 61% | 997.9 hPa | - | 4.47 m/s, 193° | - | - |
| 1777969452 | 11.67° C | 60% | 997.9 hPa | - | 3.58 m/s, 191° | - | - |
| 1777969059 | 11.11° C | 63% | 997.9 hPa | - | 3.13 m/s, 201° | - | - |
| 1777968452 | 10.56° C | 65% | 998 hPa | - | 3.13 m/s, 201° | - | - |
| 1777967769 | 10.56° C | 65% | 997.9 hPa | - | 3.13 m/s, 204° | - | - |
| 1777967136 | 10.56° C | 64% | 997.8 hPa | - | 2.24 m/s, 192° | - | - |
| 1777966341 | 11.67° C | 57% | 997.7 hPa | - | 1.34 m/s, 253° | - | - |
| 1777965622 | 11.67° C | 63% | 997.6 hPa | - | 1.79 m/s, 212° | - | - |
| 1777965252 | 11.11° C | 62% | 997.7 hPa | - | 2.24 m/s, 196° | - | - |
| 1777964589 | 11.11° C | 62% | 997.7 hPa | - | 2.68 m/s, 218° | - | - |
| 1777964209 | 10.56° C | 63% | 997.6 hPa | - | 1.79 m/s, 227° | - | - |
| 1777963506 | 10° C | 64% | 997.5 hPa | - | 2.68 m/s, 244° | - | - |
| 1777962859 | 10° C | 66% | 997.5 hPa | - | 2.24 m/s, 237° | - | - |
| 1777962471 | 10° C | 65% | 997.4 hPa | - | 2.24 m/s, 233° | - | - |
* Rain since midnight (hover to see other rain measurements)
** Current wind speed in m/s (hover to see current wind gust speed)